Time;durP1;ratioP1;P1;durP2;ratioP2;P2;SDS_P1;SDS_P2;PMS_P1;PMS_P2;Temp;Humidity;BMP_temperature;BMP_pressure;BME280_temperature;BME280_humidity;BME280_pressure;Samples;Min_cycle;Max_cycle;Signal;HPM_P1;HPM_P2
2021/05/10 00:01:27;;;;;;;12.35;8.43;;;;;;;5.30;73.62;95122.03;1826429;78;21171;-50
2021/05/10 00:03:57;;;;;;;18.65;12.60;;;;;;;5.29;73.65;95121.27;1826081;78;21159;-50
2021/05/10 00:06:26;;;;;;;22.62;14.60;;;;;;;5.27;73.50;95122.23;1826403;77;21167;-49
2021/05/10 00:08:56;;;;;;;18.48;10.95;;;;;;;5.28;73.69;95124.39;1826530;78;21067;-51
2021/05/10 00:11:25;;;;;;;9.10;7.17;;;;;;;5.27;73.99;95120.11;1826588;78;21339;-50
2021/05/10 00:13:55;;;;;;;13.15;9.48;;;;;;;5.21;73.83;95120.38;1826480;78;21199;-52
2021/05/10 00:16:23;;;;;;;12.00;7.95;;;;;;;5.14;73.74;95125.88;1826722;78;21492;-51
2021/05/10 00:18:51;;;;;;;10.60;6.80;;;;;;;5.04;74.22;95127.33;1826510;78;21181;-50
2021/05/10 00:21:19;;;;;;;8.25;6.87;;;;;;;4.90;74.58;95130.16;1826596;78;21100;-51
2021/05/10 00:23:48;;;;;;;11.48;6.97;;;;;;;4.78;75.06;95121.88;1826501;78;21139;-50
2021/05/10 00:26:19;;;;;;;9.28;6.70;;;;;;;4.78;75.37;95124.61;1826428;78;21111;-51
2021/05/10 00:28:47;;;;;;;7.45;6.65;;;;;;;4.77;75.55;95122.30;1826472;78;21117;-50
2021/05/10 00:31:15;;;;;;;11.80;7.65;;;;;;;4.72;75.75;95127.58;1826503;78;21105;-50
2021/05/10 00:33:43;;;;;;;9.25;7.15;;;;;;;4.67;75.92;95124.50;1826517;78;21072;-50
2021/05/10 00:36:11;;;;;;;10.53;7.67;;;;;;;4.61;76.10;95114.61;1826410;78;21421;-50
2021/05/10 00:38:39;;;;;;;9.90;7.08;;;;;;;4.60;76.17;95113.66;1826417;78;21156;-51
2021/05/10 00:41:07;;;;;;;9.75;7.33;;;;;;;4.59;76.02;95127.09;1826469;78;21108;-50
2021/05/10 00:43:35;;;;;;;9.55;6.90;;;;;;;4.56;76.02;95120.48;1826387;78;21143;-51
2021/05/10 00:46:03;;;;;;;13.90;9.23;;;;;;;4.59;76.22;95126.50;1826487;78;21124;-51
2021/05/10 00:48:31;;;;;;;16.95;10.45;;;;;;;4.61;76.31;95123.38;1826436;78;21315;-52
2021/05/10 00:50:59;;;;;;;17.25;10.30;;;;;;;4.58;76.45;95121.46;1826369;78;21129;-52
2021/05/10 00:53:27;;;;;;;16.40;10.82;;;;;;;4.59;76.62;95122.41;1826430;78;21112;-52
2021/05/10 00:55:55;;;;;;;14.95;10.80;;;;;;;4.60;76.48;95111.70;1826437;78;21080;-51
2021/05/10 00:58:23;;;;;;;14.50;9.03;;;;;;;4.58;76.09;95116.77;1826266;78;21041;-50
2021/05/10 01:00:50;;;;;;;10.10;8.70;;;;;;;4.50;76.05;95109.83;1760298;78;21213;-51
2021/05/10 01:03:19;;;;;;;10.78;8.13;;;;;;;4.45;76.08;95114.92;1826451;78;21135;-53
2021/05/10 01:05:47;;;;;;;9.20;7.97;;;;;;;4.41;75.99;95116.90;1760269;78;21164;-50
2021/05/10 01:08:14;;;;;;;10.20;8.65;;;;;;;4.42;76.20;95116.48;1826595;78;21931;-51
2021/05/10 01:10:42;;;;;;;16.17;8.45;;;;;;;4.45;76.19;95107.52;1826443;78;21064;-50
2021/05/10 01:13:10;;;;;;;8.70;7.20;;;;;;;4.49;76.08;95111.01;1826442;78;21354;-51
2021/05/10 01:15:39;;;;;;;6.97;6.35;;;;;;;4.50;75.92;95101.66;1826305;78;21120;-51
2021/05/10 01:18:07;;;;;;;8.03;7.15;;;;;;;4.50;75.76;95104.95;1794993;78;21116;-51
2021/05/10 01:20:35;;;;;;;10.55;7.35;;;;;;;4.46;75.75;95110.42;1826421;78;21084;-52
2021/05/10 01:23:03;;;;;;;7.50;6.42;;;;;;;4.47;75.66;95103.83;1795010;78;21068;-51
2021/05/10 01:25:32;;;;;;;21.42;9.83;;;;;;;4.46;75.57;95108.30;1826406;78;21198;-50
2021/05/10 01:28:00;;;;;;;15.75;8.78;;;;;;;4.44;75.88;95103.84;1826380;78;21159;-51
2021/05/10 01:30:37;;;;;;;17.23;9.08;;;;;;;4.41;76.22;95106.77;1826422;78;21120;-51
2021/05/10 01:33:06;;;;;;;17.60;8.23;;;;;;;4.40;76.24;95097.65;1826460;78;21092;-52
2021/05/10 01:35:37;;;;;;;16.55;8.68;;;;;;;4.30;76.28;95106.07;1826420;78;21067;-53
2021/05/10 01:38:05;;;;;;;30.27;12.63;;;;;;;4.20;76.57;95106.89;1826441;78;21193;-51
2021/05/10 01:40:35;;;;;;;30.70;14.13;;;;;;;4.13;76.69;95108.30;1826386;78;21108;-50
2021/05/10 01:43:03;;;;;;;39.40;17.62;;;;;;;4.05;76.69;95101.33;1826455;78;21080;-50
2021/05/10 01:45:35;;;;;;;31.15;15.10;;;;;;;4.00;76.91;95094.95;1826421;78;21076;-49
2021/05/10 01:48:08;;;;;;;20.92;12.03;;;;;;;3.99;77.10;95100.77;1826469;78;21060;-51
2021/05/10 01:50:38;;;;;;;32.38;16.77;;;;;;;3.96;77.13;95107.02;1826434;78;21230;-50
2021/05/10 01:53:06;;;;;;;32.08;16.02;;;;;;;3.96;77.38;95103.72;1794399;78;21116;-50
2021/05/10 01:55:34;;;;;;;31.62;16.52;;;;;;;3.97;77.44;95106.63;1826394;78;21060;-50
2021/05/10 01:58:04;;;;;;;49.05;20.60;;;;;;;3.97;77.51;95107.99;1826247;78;21134;-50
2021/05/10 02:00:36;;;;;;;85.53;33.95;;;;;;;4.01;77.50;95101.94;1826413;78;21080;-51
2021/05/10 02:03:10;;;;;;;123.62;50.98;;;;;;;4.02;77.51;95104.09;1826679;78;22099;-49
2021/05/10 02:05:37;;;;;;;189.43;75.25;;;;;;;3.96;77.47;95096.12;1826269;77;21620;-49
2021/05/10 02:08:07;;;;;;;104.27;43.58;;;;;;;3.85;77.66;95104.34;1826409;78;21084;-50
2021/05/10 02:10:39;;;;;;;128.53;50.63;;;;;;;3.81;77.85;95113.69;1826416;78;21073;-50
2021/05/10 02:13:16;;;;;;;70.57;31.25;;;;;;;3.77;77.85;95104.20;1826537;78;21131;-51
2021/05/10 02:15:48;;;;;;;47.70;21.97;;;;;;;3.77;77.80;95115.65;1826382;78;21294;-51
2021/05/10 02:18:28;;;;;;;55.40;20.68;;;;;;;3.78;77.79;95117.98;1826441;78;21080;-48
2021/05/10 02:20:56;;;;;;;34.15;16.15;;;;;;;3.83;77.81;95112.12;1822837;78;21132;-50
2021/05/10 02:23:30;;;;;;;36.23;15.98;;;;;;;3.89;77.68;95101.02;1826396;78;21077;-50
2021/05/10 02:26:00;;;;;;;38.83;16.02;;;;;;;3.95;77.56;95100.02;1826432;78;21132;-50
2021/05/10 02:28:32;;;;;;;34.35;16.15;;;;;;;3.96;77.14;95096.92;1826516;78;21545;-51
2021/05/10 02:31:01;;;;;;;20.50;12.30;;;;;;;3.91;77.09;95108.19;1826338;78;21136;-49
2021/05/10 02:33:32;;;;;;;18.80;10.10;;;;;;;3.86;76.91;95109.97;1826417;78;21119;-51
2021/05/10 02:35:59;;;;;;;15.75;9.53;;;;;;;3.83;76.68;95110.77;1826576;78;21143;-49
2021/05/10 02:38:27;;;;;;;18.92;9.98;;;;;;;3.79;76.65;95114.09;1826556;78;21238;-49
2021/05/10 02:40:58;;;;;;;23.87;12.58;;;;;;;3.76;76.77;95118.97;1826705;78;22040;-50
2021/05/10 02:43:26;;;;;;;20.50;11.30;;;;;;;3.75;76.85;95118.78;1826477;78;21160;-50
2021/05/10 02:45:55;;;;;;;13.65;8.95;;;;;;;3.75;77.11;95122.86;1826653;78;21489;-51
2021/05/10 02:48:23;;;;;;;12.78;8.08;;;;;;;3.79;77.17;95122.83;1826557;78;21079;-50
2021/05/10 02:50:51;;;;;;;15.48;8.05;;;;;;;3.78;77.01;95120.71;1826611;78;21489;-51
2021/05/10 02:53:19;;;;;;;15.90;10.03;;;;;;;3.75;77.12;95129.66;1826573;78;21184;-49
2021/05/10 02:55:47;;;;;;;16.23;9.45;;;;;;;3.75;77.38;95127.52;1826435;78;21108;-51
2021/05/10 02:58:15;;;;;;;27.58;11.40;;;;;;;3.76;77.60;95132.58;1826780;78;21496;-51
2021/05/10 03:00:43;;;;;;;19.10;11.93;;;;;;;3.74;77.66;95129.47;1829797;78;21060;-50
2021/05/10 03:03:11;;;;;;;16.02;9.08;;;;;;;3.70;77.61;95136.09;1829725;78;21474;-51
2021/05/10 03:05:40;;;;;;;20.65;9.83;;;;;;;3.65;77.78;95146.02;1829688;77;21263;-51
2021/05/10 03:08:08;;;;;;;21.90;8.68;;;;;;;3.60;77.67;95143.69;1829695;78;21116;-50
2021/05/10 03:10:36;;;;;;;15.93;9.70;;;;;;;3.57;77.77;95145.27;1829731;78;21175;-50
2021/05/10 03:13:05;;;;;;;13.88;8.75;;;;;;;3.59;77.84;95148.36;1829752;78;21061;-51
2021/05/10 03:15:33;;;;;;;23.18;9.55;;;;;;;3.63;77.81;95150.48;1829723;78;21075;-50
2021/05/10 03:18:01;;;;;;;19.35;9.83;;;;;;;3.66;77.71;95150.30;1829704;78;21376;-49
2021/05/10 03:20:30;;;;;;;18.62;10.65;;;;;;;3.62;77.76;95141.34;1828919;78;21124;-55
2021/05/10 03:22:58;;;;;;;30.05;12.78;;;;;;;3.56;77.66;95150.52;1829721;78;21132;-52
2021/05/10 03:25:29;;;;;;;18.67;9.73;;;;;;;3.54;77.86;95143.30;1829702;78;21131;-51
2021/05/10 03:27:56;;;;;;;19.35;9.35;;;;;;;3.59;77.84;95147.57;1829728;78;21168;-51
2021/05/10 03:30:25;;;;;;;16.90;9.80;;;;;;;3.61;77.85;95146.02;1829681;78;21338;-51
2021/05/10 03:32:52;;;;;;;18.48;10.88;;;;;;;3.68;77.87;95147.95;1829657;78;21084;-51
2021/05/10 03:35:21;;;;;;;20.50;12.88;;;;;;;3.75;77.88;95150.64;1829666;78;21140;-51
2021/05/10 03:37:50;;;;;;;28.87;16.00;;;;;;;3.82;77.58;95153.33;1829680;78;21136;-50
2021/05/10 03:40:21;;;;;;;81.67;33.92;;;;;;;3.82;77.52;95150.03;1829722;78;21127;-50
2021/05/10 03:42:49;;;;;;;84.72;33.95;;;;;;;3.83;77.50;95148.86;1829786;78;22091;-51
2021/05/10 03:45:17;;;;;;;33.80;17.77;;;;;;;3.89;77.57;95164.20;1829602;78;21129;-51
2021/05/10 03:47:46;;;;;;;21.70;12.18;;;;;;;3.95;77.65;95155.25;1829726;78;21063;-51
2021/05/10 03:50:20;;;;;;;17.85;10.35;;;;;;;4.00;77.42;95152.11;1829712;78;21056;-50
2021/05/10 03:52:50;;;;;;;12.88;8.83;;;;;;;4.04;77.29;95150.14;1829753;78;21123;-51
2021/05/10 03:55:20;;;;;;;15.45;8.73;;;;;;;4.11;77.22;95150.70;1829744;78;22123;-51
2021/05/10 03:57:48;;;;;;;12.25;8.78;;;;;;;4.19;77.21;95148.91;1829703;78;21501;-51
2021/05/10 04:00:18;;;;;;;13.70;8.13;;;;;;;4.28;76.95;95156.05;1827078;78;21060;-51
2021/05/10 04:02:45;;;;;;;10.30;7.80;;;;;;;4.36;76.77;95157.58;1826532;78;21481;-51
2021/05/10 04:08:07;;;;;;;19.32;7.10;;;;;;;4.54;76.61;95154.17;1826435;78;21190;-51
2021/05/10 04:15:53;;;;;;;14.20;10.80;;;;;;;4.92;75.99;95154.49;1826458;78;21068;-51
2021/05/10 04:18:21;;;;;;;19.37;10.68;;;;;;;5.02;75.79;95161.83;1826434;78;21040;-51
2021/05/10 04:20:51;;;;;;;28.75;10.88;;;;;;;5.10;75.61;95157.06;1826484;78;21354;-52
2021/05/10 04:23:19;;;;;;;22.05;9.53;;;;;;;5.22;75.60;95158.73;1826405;78;21138;-50
2021/05/10 04:25:48;;;;;;;14.83;8.18;;;;;;;5.41;75.51;95155.45;1826477;78;21108;-51
2021/05/10 04:28:16;;;;;;;10.85;9.50;;;;;;;5.58;75.12;95158.60;1826555;78;21060;-50
2021/05/10 04:30:45;;;;;;;12.28;8.15;;;;;;;5.71;74.66;95167.81;1826429;78;21065;-50
2021/05/10 04:33:13;;;;;;;13.75;8.68;;;;;;;5.80;74.35;95170.88;1826496;78;21360;-52
2021/05/10 04:35:41;;;;;;;15.75;8.33;;;;;;;5.87;73.92;95167.48;1826449;78;21085;-51
2021/05/10 04:38:11;;;;;;;18.60;7.87;;;;;;;5.88;73.69;95162.78;1826503;78;21116;-52
2021/05/10 04:40:40;;;;;;;11.90;7.75;;;;;;;5.85;73.69;95160.87;1826501;78;21088;-52
2021/05/10 04:43:08;;;;;;;10.00;7.95;;;;;;;5.90;73.44;95158.47;1826460;78;21156;-51
2021/05/10 04:45:36;;;;;;;9.63;7.45;;;;;;;5.97;73.38;95158.39;1826587;78;22122;-51
2021/05/10 04:48:05;;;;;;;11.30;7.78;;;;;;;6.06;73.13;95158.69;1826377;78;21077;-55
2021/05/10 04:50:33;;;;;;;9.75;6.95;;;;;;;6.12;72.94;95154.31;1826483;78;21084;-51
2021/05/10 04:53:00;;;;;;;15.30;8.85;;;;;;;6.16;72.66;95148.21;1826438;78;21132;-50
2021/05/10 04:55:30;;;;;;;15.93;8.70;;;;;;;6.21;72.39;95152.45;1826415;78;21156;-52
2021/05/10 04:57:58;;;;;;;11.55;8.35;;;;;;;6.23;72.25;95145.98;1826331;78;23448;-52
2021/05/10 05:00:26;;;;;;;10.70;7.17;;;;;;;6.33;72.05;95149.19;1828457;78;21056;-50
2021/05/10 05:02:54;;;;;;;11.83;7.47;;;;;;;6.44;71.83;95148.44;1829604;78;21476;-51
2021/05/10 05:05:21;;;;;;;10.78;6.42;;;;;;;6.52;71.48;95151.28;1829574;77;21097;-50
2021/05/10 05:07:49;;;;;;;16.30;8.28;;;;;;;6.58;71.32;95142.21;1829645;78;21139;-52
2021/05/10 05:10:17;;;;;;;17.23;8.10;;;;;;;6.69;71.09;95147.53;1829568;78;22419;-52
2021/05/10 05:12:49;;;;;;;20.65;11.40;;;;;;;6.82;70.75;95141.66;1829566;78;21100;-50
2021/05/10 05:15:20;;;;;;;19.82;9.43;;;;;;;6.95;70.52;95144.79;1829700;78;21623;-51
2021/05/10 05:17:48;;;;;;;20.60;10.93;;;;;;;7.13;70.11;95143.31;1829664;78;21132;-51
2021/05/10 05:20:18;;;;;;;12.93;7.37;;;;;;;7.36;69.51;95134.34;1829654;78;21040;-52
2021/05/10 05:22:47;;;;;;;9.70;5.78;;;;;;;7.56;68.57;95131.06;1829645;78;22352;-51
2021/05/10 05:25:15;;;;;;;9.00;5.60;;;;;;;7.70;67.49;95139.78;1829572;78;21181;-51
2021/05/10 05:27:44;;;;;;;6.22;4.80;;;;;;;7.80;66.95;95141.57;1829596;78;21075;-51
2021/05/10 05:30:14;;;;;;;11.78;6.03;;;;;;;7.88;66.50;95137.49;1829633;78;21064;-52
2021/05/10 05:32:41;;;;;;;13.55;7.05;;;;;;;7.97;66.18;95132.25;1829805;78;21064;-52
2021/05/10 05:35:11;;;;;;;9.40;6.55;;;;;;;8.03;65.95;95126.45;1829654;78;21271;-51
2021/05/10 05:37:39;;;;;;;10.58;6.72;;;;;;;8.09;65.91;95128.86;1829663;78;21598;-51
2021/05/10 05:40:09;;;;;;;12.37;6.53;;;;;;;8.22;65.68;95127.07;1829657;78;21187;-51
2021/05/10 05:42:37;;;;;;;8.00;6.25;;;;;;;8.30;65.15;95119.48;1829594;78;21175;-52
2021/05/10 05:45:06;;;;;;;14.85;6.87;;;;;;;8.37;64.92;95113.25;1765179;78;21652;-52
2021/05/10 05:47:34;;;;;;;18.17;6.42;;;;;;;8.52;64.88;95117.24;1829607;78;21198;-52
2021/05/10 05:50:03;;;;;;;12.68;6.50;;;;;;;8.68;64.33;95113.17;1829479;78;21084;-54
2021/05/10 05:52:31;;;;;;;9.73;5.78;;;;;;;8.79;63.98;95112.31;1829677;78;21553;-51
2021/05/10 05:55:00;;;;;;;15.60;5.65;;;;;;;8.91;63.58;95112.41;1829583;78;21160;-51
2021/05/10 05:57:28;;;;;;;15.32;6.33;;;;;;;9.03;63.16;95112.36;1829545;78;21191;-54
2021/05/10 05:59:57;;;;;;;10.53;5.87;;;;;;;9.12;62.83;95111.16;1829360;78;22009;-54
2021/05/10 06:02:25;;;;;;;7.12;4.70;;;;;;;9.25;62.59;95101.03;1829418;78;21088;-52
2021/05/10 06:04:54;;;;;;;12.28;5.53;;;;;;;9.36;61.86;95103.69;1829544;78;21155;-55
2021/05/10 06:07:24;;;;;;;9.90;5.37;;;;;;;9.48;61.90;95111.23;1825013;78;21060;-52
2021/05/10 06:09:52;;;;;;;14.53;6.35;;;;;;;9.62;61.48;95107.34;1829690;78;21084;-52
2021/05/10 06:12:20;;;;;;;11.48;5.25;;;;;;;9.76;61.45;95105.61;1829788;78;21188;-52
2021/05/10 06:14:48;;;;;;;19.23;6.12;;;;;;;9.91;61.03;95098.50;1829621;78;21144;-55
2021/05/10 06:17:16;;;;;;;9.38;5.65;;;;;;;10.04;60.97;95095.23;1829710;78;21147;-53
2021/05/10 06:19:44;;;;;;;9.30;6.55;;;;;;;10.21;60.67;95099.47;1829738;78;21065;-52
2021/05/10 06:22:12;;;;;;;11.35;6.50;;;;;;;10.34;60.45;95096.16;1829776;78;21064;-52
2021/05/10 06:24:40;;;;;;;22.05;6.55;;;;;;;10.45;60.37;95095.23;1800205;78;21161;-53
2021/05/10 06:27:08;;;;;;;15.03;6.30;;;;;;;10.61;60.19;95095.15;1829698;78;21140;-52
2021/05/10 06:29:36;;;;;;;17.95;6.50;;;;;;;10.79;59.74;95094.17;1829696;78;21166;-53
2021/05/10 06:32:05;;;;;;;15.08;6.05;;;;;;;10.91;59.21;95083.78;1829682;78;21060;-52
2021/05/10 06:34:33;;;;;;;8.65;6.20;;;;;;;11.05;58.70;95082.56;1829757;78;21080;-51
2021/05/10 06:37:01;;;;;;;9.25;5.28;;;;;;;11.18;58.09;95084.08;1829706;78;21194;-54
2021/05/10 06:39:29;;;;;;;7.30;5.17;;;;;;;11.32;58.16;95085.00;1829674;78;21131;-52
2021/05/10 06:41:57;;;;;;;11.03;5.55;;;;;;;11.46;56.90;95083.17;1829721;78;21131;-55
2021/05/10 06:44:26;;;;;;;10.18;5.75;;;;;;;11.60;56.43;95081.34;1829738;78;21099;-53
2021/05/10 06:46:54;;;;;;;11.43;4.55;;;;;;;11.77;55.48;95082.73;1829751;78;21057;-53
2021/05/10 06:49:22;;;;;;;8.40;4.78;;;;;;;11.94;55.31;95080.56;1829761;78;21372;-52
2021/05/10 06:51:50;;;;;;;9.15;4.55;;;;;;;12.10;54.53;95077.00;1829753;78;21532;-53
2021/05/10 06:54:18;;;;;;;9.40;4.75;;;;;;;12.24;54.03;95072.36;1829747;78;21108;-53
2021/05/10 06:56:46;;;;;;;4.97;3.80;;;;;;;12.38;53.18;95072.44;1829678;78;21259;-53
2021/05/10 06:59:14;;;;;;;8.75;4.12;;;;;;;12.53;52.54;95061.83;1829678;78;21076;-53
2021/05/10 07:01:42;;;;;;;8.05;4.05;;;;;;;12.69;51.82;95060.23;1829605;78;21132;-52
2021/05/10 07:04:11;;;;;;;7.95;4.05;;;;;;;12.85;51.42;95062.73;1829786;78;21568;-52
2021/05/10 07:06:41;;;;;;;7.20;4.20;;;;;;;13.03;51.22;95061.45;1829631;77;21119;-55
2021/05/10 07:09:10;;;;;;;10.80;4.10;;;;;;;13.18;50.69;95062.44;1829677;78;21171;-52
2021/05/10 07:11:39;;;;;;;8.93;3.75;;;;;;;13.34;51.07;95063.55;1829690;78;21080;-52
2021/05/10 07:14:07;;;;;;;9.33;3.70;;;;;;;13.48;50.02;95047.78;1829660;78;21218;-52
2021/05/10 07:16:35;;;;;;;4.50;3.25;;;;;;;13.66;49.38;95050.56;1829589;78;21525;-54
2021/05/10 07:19:03;;;;;;;9.40;4.10;;;;;;;13.84;49.22;95053.34;1829634;78;21048;-54
2021/05/10 07:21:31;;;;;;;13.30;3.67;;;;;;;13.97;48.81;95049.20;1829626;78;21557;-52
2021/05/10 07:24:00;;;;;;;5.53;3.50;;;;;;;14.09;48.84;95048.28;1829740;78;21491;-53
2021/05/10 07:26:29;;;;;;;3.92;3.10;;;;;;;14.23;48.60;95048.30;1829699;78;21365;-52
2021/05/10 07:28:57;;;;;;;13.90;3.12;;;;;;;14.37;48.57;95042.13;1829621;78;21175;-52
2021/05/10 07:31:24;;;;;;;4.28;2.90;;;;;;;14.50;47.37;95037.34;1829643;78;21057;-52
2021/05/10 07:33:54;;;;;;;5.12;2.75;;;;;;;14.68;46.68;95041.45;1829593;78;21060;-53
2021/05/10 07:36:21;;;;;;;5.50;3.90;;;;;;;14.87;46.12;95030.45;1829608;78;21242;-54
2021/05/10 07:38:49;;;;;;;12.75;3.05;;;;;;;15.06;46.18;95033.30;1829667;78;21351;-53
2021/05/10 07:41:16;;;;;;;8.03;2.95;;;;;;;15.23;45.14;95029.52;1799564;78;21191;-52
2021/05/10 07:43:44;;;;;;;3.35;2.52;;;;;;;15.39;44.53;95031.92;1829665;78;21032;-53
2021/05/10 07:46:11;;;;;;;7.12;2.70;;;;;;;15.53;43.73;95029.20;1829660;78;21061;-53
2021/05/10 07:48:39;;;;;;;4.65;3.10;;;;;;;15.64;43.36;95029.45;1829575;78;21103;-53
2021/05/10 07:51:07;;;;;;;3.62;2.72;;;;;;;15.76;43.28;95023.52;1829642;78;21376;-53
2021/05/10 07:53:35;;;;;;;4.87;2.25;;;;;;;15.88;43.19;95018.34;1829557;78;21552;-54
2021/05/10 07:56:04;;;;;;;4.92;2.45;;;;;;;15.99;43.16;95013.77;1829587;78;21048;-53
2021/05/10 07:58:32;;;;;;;4.75;2.80;;;;;;;16.15;42.96;95018.88;1829690;78;21505;-56
2021/05/10 08:01:04;;;;;;;2.83;2.58;;;;;;;16.29;42.66;95002.23;1827860;78;21214;-54
2021/05/10 08:03:32;;;;;;;2.20;2.00;;;;;;;16.42;42.47;95006.14;1826454;78;21376;-54
2021/05/10 08:06:01;;;;;;;6.35;2.60;;;;;;;16.53;42.26;95014.05;1826306;77;21120;-53
2021/05/10 08:08:29;;;;;;;7.30;2.77;;;;;;;16.67;41.85;95009.73;1826432;78;21139;-53
2021/05/10 08:10:56;;;;;;;2.55;2.27;;;;;;;16.80;41.50;95004.04;1826448;78;21060;-53
2021/05/10 08:13:24;;;;;;;2.98;2.33;;;;;;;16.97;41.68;95002.91;1826430;78;21049;-53
2021/05/10 08:15:54;;;;;;;2.45;2.22;;;;;;;17.11;41.15;94996.55;1794829;78;21080;-52
2021/05/10 08:18:21;;;;;;;4.10;2.02;;;;;;;17.26;40.81;94998.67;1826445;78;21100;-53
2021/05/10 08:20:49;;;;;;;3.27;2.02;;;;;;;17.39;40.17;94992.17;1826375;78;21140;-54
2021/05/10 08:23:17;;;;;;;2.10;1.75;;;;;;;17.57;39.59;94988.52;1826434;78;21172;-56
2021/05/10 08:25:45;;;;;;;4.28;2.00;;;;;;;17.77;41.64;94987.13;1826412;78;21057;-52
2021/05/10 08:28:12;;;;;;;1.70;1.60;;;;;;;17.98;39.74;94985.11;1826380;78;21370;-53
2021/05/10 08:30:40;;;;;;;2.98;1.80;;;;;;;18.17;41.11;94987.08;1826388;78;21532;-55
2021/05/10 08:33:07;;;;;;;1.90;1.57;;;;;;;18.35;41.75;94972.86;1826367;78;21143;-53
2021/05/10 08:35:36;;;;;;;2.80;1.70;;;;;;;18.52;41.86;94976.58;1826396;78;21068;-54
2021/05/10 08:38:04;;;;;;;1.50;1.40;;;;;;;18.69;41.94;94971.30;1826454;78;21071;-54
2021/05/10 08:40:32;;;;;;;2.30;2.10;;;;;;;18.87;38.95;94967.38;1826391;78;21357;-53
2021/05/10 08:43:01;;;;;;;3.52;1.92;;;;;;;19.03;40.86;94964.70;1826331;78;21172;-53
2021/05/10 08:45:29;;;;;;;4.20;1.85;;;;;;;19.18;37.81;94963.20;1826461;78;21592;-53
2021/05/10 08:48:00;;;;;;;2.70;1.70;;;;;;;19.26;36.68;94967.83;1826355;78;21147;-53
2021/05/10 08:50:29;;;;;;;5.78;2.02;;;;;;;19.27;35.92;94954.01;1826664;78;21572;-53
2021/05/10 08:52:57;;;;;;;2.85;1.90;;;;;;;19.32;36.06;94946.30;1826503;78;21629;-53
2021/05/10 08:55:24;;;;;;;4.33;2.10;;;;;;;19.41;36.54;94950.27;1826297;78;21081;-52
2021/05/10 08:57:52;;;;;;;5.55;2.00;;;;;;;19.49;37.50;94937.38;1828228;78;21134;-52
2021/05/10 09:00:22;;;;;;;5.42;2.15;;;;;;;19.58;35.73;94937.16;1835133;77;21103;-53
2021/05/10 09:02:54;;;;;;;2.60;2.15;;;;;;;19.69;35.58;94939.23;1846281;77;21083;-54
2021/05/10 09:05:22;;;;;;;4.92;2.22;;;;;;;19.77;36.62;94935.46;1804849;76;21467;-53
2021/05/10 09:08:07;;;;;;;6.30;1.70;;;;;;;19.82;36.54;94926.36;1838386;77;21119;-52
2021/05/10 09:10:34;;;;;;;4.22;2.45;;;;;;;19.89;36.48;94927.27;1835464;77;21072;-55
2021/05/10 09:13:02;;;;;;;6.20;1.90;;;;;;;20.00;36.17;94929.33;1839027;77;21534;-52
2021/05/10 09:15:32;;;;;;;2.87;1.60;;;;;;;20.11;36.54;94927.35;1832222;78;21118;-53
2021/05/10 09:18:07;;;;;;;1.35;1.25;;;;;;;20.31;36.63;94922.94;1832194;78;21369;-54
2021/05/10 09:20:40;;;;;;;1.70;1.35;;;;;;;20.50;37.23;94920.56;1832207;78;21189;-53
2021/05/10 09:23:13;;;;;;;4.37;1.85;;;;;;;20.72;37.06;94914.23;1831989;77;21118;-53
2021/05/10 09:25:48;;;;;;;2.12;1.90;;;;;;;20.90;35.71;94910.30;1832326;78;21150;-53
2021/05/10 09:28:20;;;;;;;3.12;1.60;;;;;;;21.08;34.72;94907.62;1842655;77;21171;-53
2021/05/10 09:30:58;;;;;;;1.62;1.52;;;;;;;21.22;34.53;94907.33;1846569;77;21198;-52
2021/05/10 09:33:28;;;;;;;5.12;2.17;;;;;;;21.29;34.25;94899.05;1842554;77;21134;-53
2021/05/10 09:36:07;;;;;;;2.00;1.32;;;;;;;21.33;34.20;94894.69;1838759;77;21501;-55
2021/05/10 09:38:37;;;;;;;2.08;1.50;;;;;;;21.40;36.13;94893.41;1828418;77;21491;-54
2021/05/10 09:41:09;;;;;;;2.47;1.77;;;;;;;21.52;35.19;94890.70;1846593;77;21107;-53
2021/05/10 09:43:38;;;;;;;10.13;2.12;;;;;;;21.65;33.90;94886.74;1846727;77;21144;-55
2021/05/10 09:46:12;;;;;;;4.67;1.80;;;;;;;21.74;34.19;94883.63;1846025;77;21146;-56
2021/05/10 09:48:44;;;;;;;1.87;1.40;;;;;;;21.86;34.35;94879.52;1834006;77;21550;-54
2021/05/10 09:51:15;;;;;;;3.27;1.63;;;;;;;21.98;34.11;94880.98;1832749;78;21484;-56
2021/05/10 09:53:54;;;;;;;2.33;1.42;;;;;;;22.08;33.03;94879.50;1832032;78;37976;-53
2021/05/10 09:59:01;;;;;;;3.27;1.40;;;;;;;22.36;33.19;94877.30;1832407;78;21075;-54
2021/05/10 10:01:43;;;;;;;6.72;1.52;;;;;;;22.52;35.10;94865.86;1831137;78;21130;-53
2021/05/10 10:04:14;;;;;;;4.40;1.27;;;;;;;22.70;32.33;94864.55;1829639;78;21571;-55
2021/05/10 10:06:42;;;;;;;1.22;1.12;;;;;;;22.79;31.61;94861.42;1829048;78;21063;-54
2021/05/10 10:09:09;;;;;;;6.45;1.30;;;;;;;22.94;31.64;94856.18;1829512;78;21522;-54
2021/05/10 10:11:37;;;;;;;1.65;1.20;;;;;;;23.12;31.13;94855.52;1829458;78;21897;-54
2021/05/10 10:14:05;;;;;;;1.45;1.00;;;;;;;23.34;32.28;94852.47;1829505;78;20990;-53
2021/05/10 10:16:34;;;;;;;1.05;0.98;;;;;;;23.60;31.96;94845.64;1829443;78;21081;-52
2021/05/10 10:19:05;;;;;;;1.22;1.00;;;;;;;23.89;32.08;94843.39;1829642;78;21059;-53
2021/05/10 10:21:37;;;;;;;2.00;1.23;;;;;;;24.20;32.14;94839.89;1829922;78;21365;-53
2021/05/10 10:24:08;;;;;;;3.10;1.40;;;;;;;24.48;29.88;94838.80;1829562;78;21059;-53
2021/05/10 10:26:38;;;;;;;3.90;1.20;;;;;;;24.70;29.31;94830.80;1825052;78;21153;-54
2021/05/10 10:29:10;;;;;;;6.40;1.40;;;;;;;24.91;29.13;94830.30;1829453;78;21055;-53
2021/05/10 10:31:48;;;;;;;2.52;1.62;;;;;;;25.11;29.48;94829.69;1829805;78;21471;-54
2021/05/10 10:34:35;;;;;;;1.42;1.17;;;;;;;25.37;28.62;94829.75;1829517;78;21320;-52
2021/05/10 10:37:04;;;;;;;5.03;1.62;;;;;;;25.63;28.41;94826.16;1829408;78;21050;-54
2021/05/10 10:39:33;;;;;;;2.85;1.22;;;;;;;25.83;28.39;94824.08;1829467;77;21134;-54
2021/05/10 10:42:09;;;;;;;2.55;0.90;;;;;;;25.93;27.22;94820.29;1829503;78;21122;-58
2021/05/10 10:44:47;;;;;;;8.43;2.15;;;;;;;25.93;27.41;94816.80;1829543;78;21579;-54
2021/05/10 10:47:18;;;;;;;2.10;1.07;;;;;;;26.07;27.43;94816.88;1829568;78;21375;-55
2021/05/10 10:49:46;;;;;;;4.55;1.98;;;;;;;26.30;26.31;94815.73;1825690;78;21074;-54
2021/05/10 10:52:20;;;;;;;6.97;2.65;;;;;;;26.43;26.21;94810.78;1829577;78;21047;-53
2021/05/10 10:55:17;;;;;;;3.20;1.45;;;;;;;26.67;26.73;94814.70;1829510;78;21122;-57
2021/05/10 10:57:45;;;;;;;7.35;2.02;;;;;;;26.99;25.75;94808.13;1829725;78;21084;-57
2021/05/10 11:02:59;;;;;;;0.90;0.80;;;;;;;27.94;27.90;94793.03;1890006;75;22686;-55
2021/05/10 11:05:29;;;;;;;1.40;0.80;;;;;;;28.34;28.92;94799.78;1864414;76;21131;-55
2021/05/10 11:08:04;;;;;;;4.15;0.60;;;;;;;28.89;27.81;94798.66;1807060;79;21359;-55
2021/05/10 11:10:49;;;;;;;1.27;0.80;;;;;;;29.34;24.84;94796.56;1822812;78;20906;-53
2021/05/10 11:13:33;;;;;;;2.12;0.70;;;;;;;29.60;22.93;94791.92;1822937;78;21508;-53
2021/05/10 11:16:20;;;;;;;3.33;1.00;;;;;;;29.82;23.09;94788.91;1807060;79;21077;-55
2021/05/10 11:18:54;;;;;;;1.02;0.80;;;;;;;29.82;22.49;94783.23;1822290;78;21092;-55
2021/05/10 11:21:27;;;;;;;4.17;1.02;;;;;;;29.84;23.02;94777.77;1822087;78;21364;-53
2021/05/10 11:24:04;;;;;;;3.40;0.62;;;;;;;30.07;23.19;94779.19;1806977;79;21615;-54
2021/05/10 11:26:50;;;;;;;0.60;0.60;;;;;;;30.50;24.81;94775.95;1822907;78;21063;-56
2021/05/10 11:29:34;;;;;;;1.10;0.70;;;;;;;30.97;24.21;94769.48;1822810;78;21122;-54
2021/05/10 11:32:21;;;;;;;0.60;0.60;;;;;;;31.32;23.03;94756.87;1822810;78;21031;-56
2021/05/10 11:34:51;;;;;;;1.67;0.80;;;;;;;31.56;21.27;94765.28;1822835;78;21359;-55
2021/05/10 11:37:28;;;;;;;4.40;0.80;;;;;;;31.64;20.75;94759.56;1793264;78;21123;-55
2021/05/10 11:39:57;;;;;;;3.67;0.85;;;;;;;31.73;23.32;94748.97;1806975;79;21107;-55
2021/05/10 11:42:28;;;;;;;1.47;0.90;;;;;;;31.97;21.30;94758.07;1822700;78;21186;-54
2021/05/10 11:45:00;;;;;;;1.35;0.90;;;;;;;32.24;19.93;94754.64;1807062;79;21143;-55
2021/05/10 11:47:29;;;;;;;3.20;0.93;;;;;;;32.47;21.07;94749.37;1822180;78;21480;-54
2021/05/10 11:50:02;;;;;;;0.82;0.70;;;;;;;32.84;21.60;94744.57;1806937;79;21138;-54
2021/05/10 11:52:30;;;;;;;1.45;0.45;;;;;;;33.14;18.85;94749.02;1822494;78;21064;-53
2021/05/10 11:55:02;;;;;;;4.30;1.00;;;;;;;33.26;19.54;94744.26;1822937;78;21068;-54
2021/05/10 11:57:32;;;;;;;0.72;0.57;;;;;;;33.39;20.27;94741.76;1807013;79;21060;-55